Pietro Novelli — IOTQ — position and weather

sailwx.info

Track history (hours):
 
Tides and Currents Weather Stations Pressure Air Temp Water Temp Dewpoint Dewpoint Depression Visibility Wind Speed Wind Dir Waves Ship Positions

Pietro Novelli

Last reported at 2017-Sep-22 02:00 UTC. Time now 2017-Sep-22 22:49 UTC.
Position N 38°28' E 014°57'.

Length 91 m; draft 3.8 m.

Type: Ship. MMSI: 247000300.

Date/timePositionNaut miles runAvg speedWind from/ knotsBaromVisibWave heightAir tempDewpointWater temp
2017-Sep-22 02:00N 38°28' E 014°57'0 0.0
2017-Sep-22 01:30N 38°28' E 014°57'0 0.0
2017-Sep-22 01:00N 38°28' E 014°57'0 0.0
2017-Sep-22 00:02N 38°28' E 014°57'0 0.0
2017-Sep-21 23:58N 38°28' E 014°57'0 0.0
2017-Sep-21 23:26N 38°28' E 014°57'0 0.0
2017-Sep-21 22:54N 38°28' E 014°57'0 0.0
2017-Sep-21 22:30N 38°28' E 014°57'0 0.0
2017-Sep-21 22:00N 38°28' E 014°57'0 0.0
2017-Sep-21 21:30N 38°28' E 014°57'0 0.0
2017-Sep-21 21:00N 38°28' E 014°57'0 0.0
2017-Sep-21 20:30N 38°28' E 014°57'0 0.0
2017-Sep-21 20:00N 38°28' E 014°57'0 0.0
2017-Sep-21 19:30N 38°28' E 014°57'0 0.0
2017-Sep-21 19:00N 38°28' E 014°57'3 5.4
2017-Sep-21 18:29N 38°26' E 014°59'1 1.1
2017-Sep-21 18:00N 38°25' E 014°59'714.6
2017-Sep-21 17:30N 38°21' E 015°06'714.5
2017-Sep-21 17:00N 38°17' E 015°14'4 8.5
2017-Sep-21 16:30N 38°13' E 015°15'0 0.0
2017-Sep-21 16:00N 38°13' E 015°15'0 0.0
2017-Sep-21 15:30N 38°13' E 015°15'0 0.0
2017-Sep-21 15:00N 38°13' E 015°15'0 0.0
2017-Sep-21 14:30N 38°13' E 015°15'0 0.0
2017-Sep-21 14:00N 38°13' E 015°15'0 0.0
2017-Sep-21 13:30N 38°13' E 015°15'0 0.0
2017-Sep-21 13:00N 38°13' E 015°15'0 0.0
2017-Sep-21 12:30N 38°13' E 015°15'0 0.0
2017-Sep-21 12:00N 38°13' E 015°15'0 0.0
2017-Sep-21 11:30N 38°13' E 015°15'0 0.0
2017-Sep-21 11:00N 38°13' E 015°15'0 0.0
2017-Sep-21 10:30N 38°13' E 015°15'0 0.0
2017-Sep-21 10:00N 38°13' E 015°15'0 0.0
2017-Sep-21 09:30N 38°13' E 015°15'0 0.0
2017-Sep-21 09:00N 38°13' E 015°15'0 0.0
2017-Sep-21 08:30N 38°13' E 015°15'0 0.0
2017-Sep-21 08:00N 38°13' E 015°15'0 0.0
2017-Sep-21 07:30N 38°13' E 015°15'0 0.0
2017-Sep-21 07:00N 38°13' E 015°15'2 3.4
2017-Sep-21 06:30N 38°14' E 015°16'612.7
2017-Sep-21 06:00N 38°19' E 015°11'714.3
2017-Sep-21 05:31N 38°23' E 015°03'5 7.7
2017-Sep-21 04:52N 38°25' E 014°58'3 8.6
2017-Sep-21 04:29N 38°28' E 014°57'0 0.0
2017-Sep-21 03:59N 38°28' E 014°57'0 0.0
2017-Sep-21 03:17N 38°28' E 014°57'0 0.0
2017-Sep-21 02:59N 38°28' E 014°57'0 0.0
2017-Sep-21 02:29N 38°28' E 014°57'0 0.0
2017-Sep-21 01:59N 38°28' E 014°57'0 0.0
2017-Sep-21 01:29N 38°28' E 014°57'0 0.0
2017-Sep-21 00:59N 38°28' E 014°57'0 0.0
2017-Sep-21 00:23N 38°28' E 014°57'0 0.0
2017-Sep-20 23:41N 38°28' E 014°57'0 0.0
2017-Sep-20 23:23N 38°28' E 014°57'0 0.0
2017-Sep-20 22:59N 38°28' E 014°57'0 0.0
2017-Sep-20 22:29N 38°28' E 014°57'0 0.0
2017-Sep-20 21:35N 38°28' E 014°57'0 0.0
2017-Sep-20 21:26N 38°28' E 014°57'0 0.0
2017-Sep-20 20:50N 38°28' E 014°57'0 0.0
2017-Sep-20 20:29N 38°28' E 014°57'0 0.0
2017-Sep-20 20:01N 38°28' E 014°57'0 0.0
2017-Sep-20 19:30N 38°28' E 014°57'0 0.0
2017-Sep-20 19:01N 38°28' E 014°57'3 6.4
2017-Sep-20 18:29N 38°25' E 014°58'3 5.3
2017-Sep-20 17:59N 38°24' E 015°01'613.2
2017-Sep-20 17:30N 38°21' E 015°08'612.7
2017-Sep-20 17:00N 38°17' E 015°15'4 8.4
2017-Sep-20 16:30N 38°13' E 015°15'0 0.0
2017-Sep-20 16:00N 38°13' E 015°15'0 0.0
2017-Sep-20 15:30N 38°13' E 015°15'0 0.0
2017-Sep-20 15:00N 38°13' E 015°15'0 0.0
2017-Sep-20 14:00N 38°13' E 015°15'0 0.0
2017-Sep-20 13:30N 38°13' E 015°15'0 0.0
2017-Sep-20 13:00N 38°13' E 015°15'0 0.0
2017-Sep-20 12:30N 38°13' E 015°15'0 0.0
2017-Sep-20 12:00N 38°13' E 015°15'0 0.0
2017-Sep-20 11:30N 38°13' E 015°15'0 0.0
2017-Sep-20 11:00N 38°13' E 015°15'0 0.0
2017-Sep-20 10:30N 38°13' E 015°15'0 0.0
2017-Sep-20 10:00N 38°13' E 015°15'0 0.0
2017-Sep-20 09:30N 38°13' E 015°15'0 0.0
2017-Sep-20 09:00N 38°13' E 015°15'0 0.0
2017-Sep-20 08:30N 38°13' E 015°15'0 0.0
2017-Sep-20 08:00N 38°13' E 015°15'0 0.0
2017-Sep-20 07:30N 38°13' E 015°15'0 0.0
2017-Sep-20 07:00N 38°13' E 015°15'1 2.8
2017-Sep-20 06:31N 38°13' E 015°16'612.2
2017-Sep-20 06:00N 38°18' E 015°11'713.9
2017-Sep-20 05:30N 38°22' E 015°03'5 9.0
2017-Sep-20 04:54N 38°25' E 014°58'3 0.5
2017-Sep-19 22:56N 38°28' E 014°57'0 0.0
2017-Sep-19 22:25N 38°28' E 014°57'0 0.0
2017-Sep-19 21:49N 38°28' E 014°57'0 0.0
2017-Sep-19 21:13N 38°28' E 014°57'0 0.0
2017-Sep-19 20:43N 38°28' E 014°57'0 0.0
2017-Sep-19 20:25N 38°28' E 014°57'0 0.0
2017-Sep-19 19:49N 38°28' E 014°57'0 0.0
2017-Sep-19 19:08N 38°28' E 014°57'0 0.0
2017-Sep-19 19:00N 38°28' E 014°57'2 3.3
2017-Sep-19 18:29N 38°27' E 014°58'2 3.6
2017-Sep-19 18:00N 38°25' E 014°59'714.3
2017-Sep-19 17:30N 38°21' E 015°07'714.6
2017-Sep-19 17:00N 38°17' E 015°14'4 8.8
2017-Sep-19 16:30N 38°13' E 015°15'0 0.0
2017-Sep-19 16:00N 38°13' E 015°15'0 0.0
2017-Sep-19 15:30N 38°13' E 015°15'0 0.0
2017-Sep-19 15:00N 38°13' E 015°15'0 0.0
2017-Sep-19 14:30N 38°13' E 015°15'0 0.0
2017-Sep-19 14:00N 38°13' E 015°15'0 0.0
2017-Sep-19 13:30N 38°13' E 015°15'0 0.0
2017-Sep-19 13:00N 38°13' E 015°15'0 0.0
2017-Sep-19 12:30N 38°13' E 015°15'0 0.0
2017-Sep-19 12:00N 38°13' E 015°15'0 0.0
2017-Sep-19 11:30N 38°13' E 015°15'0 0.0
2017-Sep-19 11:00N 38°13' E 015°15'0 0.0
2017-Sep-19 10:30N 38°13' E 015°15'0 0.0
2017-Sep-19 10:00N 38°13' E 015°15'0 0.0
2017-Sep-19 09:30N 38°13' E 015°15'0 0.0
2017-Sep-19 09:00N 38°13' E 015°15'0 0.0
2017-Sep-19 08:30N 38°13' E 015°15'0 0.0
2017-Sep-19 08:00N 38°13' E 015°15'0 0.4
2017-Sep-19 07:30N 38°13' E 015°15'0 0.0
2017-Sep-19 07:00N 38°13' E 015°15'1 2.5
2017-Sep-19 06:30N 38°14' E 015°16'612.7
2017-Sep-19 06:00N 38°19' E 015°12'714.9
2017-Sep-19 05:30N 38°23' E 015°04'5 7.8
2017-Sep-19 04:52N 38°25' E 014°58'3 5.2
2017-Sep-19 04:14N 38°28' E 014°57'0 0.1
2017-Sep-19 03:50N 38°28' E 014°57'0 0.0
2017-Sep-19 03:14N 38°28' E 014°57'0 0.0
2017-Sep-18 19:41N 38°28' E 014°57'0 0.0
2017-Sep-18 19:25N 38°28' E 014°57'0 0.0
2017-Sep-18 19:00N 38°28' E 014°57'0 0.8
2017-Sep-18 18:29N 38°28' E 014°58'3 6.1
2017-Sep-18 18:00N 38°25' E 014°58'714.6
2017-Sep-18 17:30N 38°21' E 015°06'815.2
2017-Sep-18 17:00N 38°18' E 015°14'5 0.6
2017-Sep-18 08:58N 38°13' E 015°15'0 0.0
2017-Sep-18 08:28N 38°13' E 015°15'0 0.0
2017-Sep-18 07:58N 38°13' E 015°15'0 0.4
2017-Sep-18 07:28N 38°13' E 015°15'0 0.0
2017-Sep-18 06:46N 38°13' E 015°15'2 6.6
2017-Sep-18 06:30N 38°14' E 015°16'613.2
2017-Sep-18 06:00N 38°19' E 015°11'714.2
2017-Sep-18 05:30N 38°23' E 015°03'5 7.2
2017-Sep-18 04:51N 38°25' E 014°58'3 8.3
2017-Sep-18 04:27N 38°28' E 014°57'0 0.0
2017-Sep-18 02:11N 38°28' E 014°57'0 0.0
2017-Sep-18 01:58N 38°28' E 014°57'0 0.0
2017-Sep-18 01:30N 38°28' E 014°57'0 0.0
2017-Sep-18 01:00N 38°28' E 014°57'0 0.0
2017-Sep-18 00:30N 38°28' E 014°57'0 0.0
2017-Sep-18 00:00N 38°28' E 014°57'0 0.0
2017-Sep-17 23:30N 38°28' E 014°57'0 0.0
2017-Sep-17 23:00N 38°28' E 014°57'0 0.0
2017-Sep-17 22:30N 38°28' E 014°57'0 0.0
2017-Sep-17 22:00N 38°28' E 014°57'0 0.0
2017-Sep-17 21:30N 38°28' E 014°57'0 0.0
2017-Sep-17 21:00N 38°28' E 014°57'0 0.0
2017-Sep-17 20:30N 38°28' E 014°57'0 0.0
2017-Sep-17 20:00N 38°28' E 014°57'0 0.0
2017-Sep-17 19:30N 38°28' E 014°57'0 0.0
2017-Sep-17 18:57N 38°28' E 014°57'1 1.8
2017-Sep-17 18:29N 38°28' E 014°58'3 5.2
2017-Sep-17 18:01N 38°25' E 014°58'814.9
2017-Sep-17 17:30N 38°21' E 015°06'815.3
2017-Sep-17 17:01N 38°17' E 015°15'4 8.5
2017-Sep-17 16:29N 38°13' E 015°15'0 0.0
2017-Sep-17 15:59N 38°13' E 015°15'0 0.0
2017-Sep-17 13:57N 38°13' E 015°15'0 0.0
2017-Sep-17 13:30N 38°13' E 015°15'0 0.0
2017-Sep-17 13:00N 38°13' E 015°15'0 0.0
2017-Sep-17 12:30N 38°13' E 015°15'0 0.0
2017-Sep-17 12:00N 38°13' E 015°15'0 0.0
2017-Sep-17 11:30N 38°13' E 015°15'0 0.0
2017-Sep-17 11:00N 38°13' E 015°15'0 0.0
2017-Sep-17 10:30N 38°13' E 015°15'0 0.0
2017-Sep-17 10:00N 38°13' E 015°15'0 0.0
2017-Sep-17 09:30N 38°13' E 015°15'0 0.0
2017-Sep-17 09:00N 38°13' E 015°15'0 0.0
2017-Sep-17 08:30N 38°13' E 015°15'0 0.0
2017-Sep-17 08:00N 38°13' E 015°15'0 0.0
2017-Sep-17 07:30N 38°13' E 015°15'0 0.0
2017-Sep-17 07:00N 38°13' E 015°15'2 3.3
2017-Sep-17 06:30N 38°14' E 015°16'612.9
2017-Sep-17 06:00N 38°19' E 015°12'714.5
2017-Sep-17 05:30N 38°23' E 015°04'5 8.6
2017-Sep-17 04:56N 38°25' E 014°58'3 6.2
2017-Sep-17 04:23N 38°28' E 014°57'0 0.0
2017-Sep-17 04:00N 38°28' E 014°57'0 0.0
2017-Sep-17 03:30N 38°28' E 014°57'0 0.0
2017-Sep-17 03:00N 38°28' E 014°57'0 0.0
2017-Sep-17 02:30N 38°28' E 014°57'0 0.0
2017-Sep-17 01:58N 38°28' E 014°57'0 0.0
2017-Sep-17 01:29N 38°28' E 014°57'0 0.0
2017-Sep-17 01:00N 38°28' E 014°57'0 0.0
2017-Sep-17 00:30N 38°28' E 014°57'0 0.0
2017-Sep-17 00:00N 38°28' E 014°57'0 0.0
2017-Sep-16 23:29N 38°28' E 014°57'0 0.0
2017-Sep-16 23:00N 38°28' E 014°57'0 0.0
2017-Sep-16 22:30N 38°28' E 014°57'0 0.0
2017-Sep-16 21:59N 38°28' E 014°57'0 0.0
2017-Sep-16 21:30N 38°28' E 014°57'0 0.0
2017-Sep-16 21:00N 38°28' E 014°57'0 0.0
2017-Sep-16 20:30N 38°28' E 014°57'0 0.0
2017-Sep-16 20:00N 38°28' E 014°57'0 0.0
2017-Sep-16 19:30N 38°28' E 014°57'0 0.0
2017-Sep-16 19:00N 38°28' E 014°57'0 0.1
2017-Sep-16 18:31N 38°28' E 014°57'3 6.0
2017-Sep-16 17:58N 38°25' E 014°58'714.7
2017-Sep-16 17:30N 38°22' E 015°05'815.5
2017-Sep-16 17:00N 38°18' E 015°14'5 7.6
2017-Sep-16 16:22N 38°13' E 015°15'0 0.0
2017-Sep-16 15:57N 38°13' E 015°15'0 0.0
2017-Sep-16 15:28N 38°13' E 015°15'0 0.0
2017-Sep-16 14:58N 38°13' E 015°15'0 0.0
2017-Sep-16 14:28N 38°13' E 015°15'0 0.0
2017-Sep-16 13:58N 38°13' E 015°15'0 0.0
2017-Sep-16 13:28N 38°13' E 015°15'0 0.0
2017-Sep-16 12:59N 38°13' E 015°15'0 0.0
2017-Sep-16 12:29N 38°13' E 015°15'0 0.0
2017-Sep-16 11:58N 38°13' E 015°15'0 0.0
2017-Sep-16 11:28N 38°13' E 015°15'0 0.0
2017-Sep-16 10:58N 38°13' E 015°15'0 0.0
2017-Sep-16 09:15N 38°13' E 015°15'0 0.0
2017-Sep-16 09:00N 38°13' E 015°15'0 0.0
2017-Sep-16 08:30N 38°13' E 015°15'0 0.0
2017-Sep-16 08:00N 38°13' E 015°15'0 0.4
2017-Sep-16 07:30N 38°13' E 015°15'0 0.0
2017-Sep-16 07:00N 38°13' E 015°15'1 2.4
2017-Sep-16 06:30N 38°13' E 015°16'612.8
2017-Sep-16 06:01N 38°19' E 015°12'714.5
2017-Sep-16 05:31N 38°23' E 015°04'5 8.1
2017-Sep-16 04:52N 38°25' E 014°58'3 7.9
2017-Sep-16 04:28N 38°28' E 014°57'0 0.0
2017-Sep-16 03:54N 38°28' E 014°57'0 0.0
2017-Sep-16 03:30N 38°28' E 014°57'0 0.0
2017-Sep-16 02:56N 38°28' E 014°57'0 0.0
2017-Sep-16 02:29N 38°28' E 014°57'0 0.0
2017-Sep-16 02:00N 38°28' E 014°57'0 0.0
2017-Sep-16 01:30N 38°28' E 014°57'0 0.0
2017-Sep-16 01:00N 38°28' E 014°57'0 0.0
2017-Sep-16 00:30N 38°28' E 014°57'0 0.0
2017-Sep-16 00:00N 38°28' E 014°57'0 0.0
2017-Sep-15 23:21N 38°28' E 014°57'0 0.0
2017-Sep-15 23:00N 38°28' E 014°57'0 0.0
2017-Sep-15 22:29N 38°28' E 014°57'0 0.0
2017-Sep-15 22:00N 38°28' E 014°57'0 0.0
2017-Sep-15 21:31N 38°28' E 014°57'0 0.0
2017-Sep-15 21:00N 38°28' E 014°57'0 0.0
2017-Sep-15 20:30N 38°28' E 014°57'0 0.0
2017-Sep-15 19:58N 38°28' E 014°57'0 0.0
2017-Sep-15 19:30N 38°28' E 014°57'0 0.0
2017-Sep-15 19:00N 38°28' E 014°57'0 0.2
2017-Sep-15 18:29N 38°28' E 014°58'3 6.4
2017-Sep-15 17:59N 38°25' E 014°58'714.5
2017-Sep-15 17:30N 38°22' E 015°06'815.3
2017-Sep-15 17:00N 38°18' E 015°14'5 8.9
2017-Sep-15 16:28N 38°13' E 015°15'0 0.0
2017-Sep-15 15:58N 38°13' E 015°15'0 0.4
2017-Sep-15 15:29N 38°13' E 015°15'0 0.0
2017-Sep-15 14:59N 38°13' E 015°15'0 0.0
2017-Sep-15 14:29N 38°13' E 015°15'0 0.0
2017-Sep-15 13:59N 38°13' E 015°15'0 0.0
2017-Sep-15 13:29N 38°13' E 015°15'0 0.0
2017-Sep-15 12:59N 38°13' E 015°15'0 0.0
2017-Sep-15 12:29N 38°13' E 015°15'0 0.0
2017-Sep-15 12:00N 38°13' E 015°15'0 0.0
2017-Sep-15 11:30N 38°13' E 015°15'0 0.0
2017-Sep-15 11:00N 38°13' E 015°15'0 0.0
2017-Sep-15 10:30N 38°13' E 015°15'0 0.0
2017-Sep-15 10:00N 38°13' E 015°15'0 0.0
2017-Sep-15 09:30N 38°13' E 015°15'0 0.0
2017-Sep-15 09:00N 38°13' E 015°15'0 0.0
2017-Sep-15 08:30N 38°13' E 015°15'0 0.0
2017-Sep-15 08:00N 38°13' E 015°15'0 0.0
2017-Sep-15 07:30N 38°13' E 015°15'0 0.1
2017-Sep-15 07:00N 38°13' E 015°15'2 3.4
2017-Sep-15 06:30N 38°14' E 015°16'612.7
2017-Sep-15 06:01N 38°19' E 015°11'714.7
2017-Sep-15 05:31N 38°23' E 015°03'5 7.3
2017-Sep-15 04:54N 38°25' E 014°58'3 0.5
2017-Sep-14 22:20N 38°28' E 014°57'0 0.0
2017-Sep-14 21:44N 38°28' E 014°57'0 0.0
2017-Sep-14 21:20N 38°28' E 014°57'0 0.0
2017-Sep-14 20:56N 38°28' E 014°57'0 0.0
2017-Sep-14 18:50N 38°28' E 014°57'0 0.2
2017-Sep-14 18:30N 38°28' E 014°57'3 6.5
2017-Sep-14 18:00N 38°25' E 014°58'714.2
2017-Sep-14 17:30N 38°21' E 015°06'714.8
2017-Sep-14 17:00N 38°18' E 015°14'5 8.5
2017-Sep-14 16:26N 38°13' E 015°15'0 0.0
2017-Sep-14 15:56N 38°13' E 015°15'0 0.1
2017-Sep-14 15:26N 38°13' E 015°15'0 0.0
2017-Sep-14 14:56N 38°13' E 015°15'0 0.0
2017-Sep-14 11:40N 38°13' E 015°15'0 0.0
2017-Sep-14 11:27N 38°13' E 015°15'0 0.0
2017-Sep-14 10:49N 38°13' E 015°15'0 0.0
2017-Sep-14 10:30N 38°13' E 015°15'0 0.0
2017-Sep-14 10:00N 38°13' E 015°15'0 0.0
2017-Sep-14 09:30N 38°13' E 015°15'0 0.0
2017-Sep-14 09:00N 38°13' E 015°15'0 0.0
2017-Sep-14 08:30N 38°13' E 015°15'0 0.0
2017-Sep-14 08:00N 38°13' E 015°15'0 0.0
2017-Sep-14 07:30N 38°13' E 015°15'0 0.0
2017-Sep-14 07:00N 38°13' E 015°15'2 3.9
2017-Sep-14 06:30N 38°14' E 015°16'714.1
2017-Sep-14 06:00N 38°20' E 015°11'714.6
2017-Sep-14 05:30N 38°23' E 015°03'4 6.0
2017-Sep-14 04:50N 38°25' E 014°58'3 0.3
2017-Sep-13 18:51N 38°28' E 014°57'3 4.4
2017-Sep-13 18:07N 38°25' E 014°58'214.0
2017-Sep-13 17:59N 38°24' E 015°00'714.6
2017-Sep-13 17:30N 38°21' E 015°08'714.4
2017-Sep-13 17:00N 38°17' E 015°16'4 0.6
2017-Sep-13 10:01N 38°13' E 015°15'0 0.0
2017-Sep-13 09:56N 38°13' E 015°15'0 0.0
2017-Sep-13 09:26N 38°13' E 015°15'0 0.0
2017-Sep-13 08:56N 38°13' E 015°15'0 0.0
2017-Sep-13 08:25N 38°13' E 015°15'0 0.0
2017-Sep-13 07:56N 38°13' E 015°15'0 0.0
2017-Sep-13 07:26N 38°13' E 015°15'0 0.1
2017-Sep-13 07:00N 38°13' E 015°15'2 3.9
2017-Sep-13 06:31N 38°14' E 015°16'713.5
2017-Sep-13 06:00N 38°20' E 015°11'814.9
2017-Sep-13 05:30N 38°23' E 015°02'4 6.2
2017-Sep-13 04:52N 38°26' E 014°58'3 3.4
2017-Sep-13 04:05N 38°28' E 014°57'0 0.1
2017-Sep-13 03:44N 38°28' E 014°57'0 0.0
2017-Sep-13 03:30N 38°28' E 014°57'3 0.3
2017-Sep-12 18:03N 38°25' E 014°58'214.3
2017-Sep-12 17:54N 38°24' E 015°01'614.2
2017-Sep-12 17:30N 38°21' E 015°07'713.8
2017-Sep-12 17:00N 38°17' E 015°14'4 7.9
2017-Sep-12 16:27N 38°13' E 015°15'0 0.0
2017-Sep-12 15:57N 38°13' E 015°15'0 0.0
2017-Sep-12 15:27N 38°13' E 015°15'0 0.1
2017-Sep-12 10:37N 38°13' E 015°15'  
Track history (hours):
 
Tides and Currents Weather Stations Pressure Air Temp Water Temp Dewpoint Dewpoint Depression Visibility Wind Speed Wind Dir Waves Ship Positions

Pietro Novelli

Last reported at 2017-Sep-22 02:00 UTC. Time now 2017-Sep-22 22:49 UTC.
Position N 38°28' E 014°57'.

Length 91 m; draft 3.8 m.

Type: Ship. MMSI: 247000300.

Date/timePositionNaut miles runAvg speedWind from/ knotsBaromVisibWave heightAir tempDewpointWater temp
2017-Sep-22 02:00N 38°28' E 014°57'0 0.0
2017-Sep-22 01:30N 38°28' E 014°57'0 0.0
2017-Sep-22 01:00N 38°28' E 014°57'0 0.0
2017-Sep-22 00:02N 38°28' E 014°57'0 0.0
2017-Sep-21 23:58N 38°28' E 014°57'0 0.0
2017-Sep-21 23:26N 38°28' E 014°57'0 0.0
2017-Sep-21 22:54N 38°28' E 014°57'0 0.0
2017-Sep-21 22:30N 38°28' E 014°57'0 0.0
2017-Sep-21 22:00N 38°28' E 014°57'0 0.0
2017-Sep-21 21:30N 38°28' E 014°57'0 0.0
2017-Sep-21 21:00N 38°28' E 014°57'0 0.0
2017-Sep-21 20:30N 38°28' E 014°57'0 0.0
2017-Sep-21 20:00N 38°28' E 014°57'0 0.0
2017-Sep-21 19:30N 38°28' E 014°57'0 0.0
2017-Sep-21 19:00N 38°28' E 014°57'3 5.4
2017-Sep-21 18:29N 38°26' E 014°59'1 1.1
2017-Sep-21 18:00N 38°25' E 014°59'714.6
2017-Sep-21 17:30N 38°21' E 015°06'714.5
2017-Sep-21 17:00N 38°17' E 015°14'4 8.5
2017-Sep-21 16:30N 38°13' E 015°15'0 0.0
2017-Sep-21 16:00N 38°13' E 015°15'0 0.0
2017-Sep-21 15:30N 38°13' E 015°15'0 0.0
2017-Sep-21 15:00N 38°13' E 015°15'0 0.0
2017-Sep-21 14:30N 38°13' E 015°15'0 0.0
2017-Sep-21 14:00N 38°13' E 015°15'0 0.0
2017-Sep-21 13:30N 38°13' E 015°15'0 0.0
2017-Sep-21 13:00N 38°13' E 015°15'0 0.0
2017-Sep-21 12:30N 38°13' E 015°15'0 0.0
2017-Sep-21 12:00N 38°13' E 015°15'0 0.0
2017-Sep-21 11:30N 38°13' E 015°15'0 0.0
2017-Sep-21 11:00N 38°13' E 015°15'0 0.0
2017-Sep-21 10:30N 38°13' E 015°15'0 0.0
2017-Sep-21 10:00N 38°13' E 015°15'0 0.0
2017-Sep-21 09:30N 38°13' E 015°15'0 0.0
2017-Sep-21 09:00N 38°13' E 015°15'0 0.0
2017-Sep-21 08:30N 38°13' E 015°15'0 0.0
2017-Sep-21 08:00N 38°13' E 015°15'0 0.0
2017-Sep-21 07:30N 38°13' E 015°15'0 0.0
2017-Sep-21 07:00N 38°13' E 015°15'2 3.4
2017-Sep-21 06:30N 38°14' E 015°16'612.7
2017-Sep-21 06:00N 38°19' E 015°11'714.3
2017-Sep-21 05:31N 38°23' E 015°03'5 7.7
2017-Sep-21 04:52N 38°25' E 014°58'3 8.6
2017-Sep-21 04:29N 38°28' E 014°57'0 0.0
2017-Sep-21 03:59N 38°28' E 014°57'0 0.0
2017-Sep-21 03:17N 38°28' E 014°57'0 0.0
2017-Sep-21 02:59N 38°28' E 014°57'0 0.0
2017-Sep-21 02:29N 38°28' E 014°57'0 0.0
2017-Sep-21 01:59N 38°28' E 014°57'0 0.0
2017-Sep-21 01:29N 38°28' E 014°57'0 0.0
2017-Sep-21 00:59N 38°28' E 014°57'0 0.0
2017-Sep-21 00:23N 38°28' E 014°57'0 0.0
2017-Sep-20 23:41N 38°28' E 014°57'0 0.0
2017-Sep-20 23:23N 38°28' E 014°57'0 0.0
2017-Sep-20 22:59N 38°28' E 014°57'0 0.0
2017-Sep-20 22:29N 38°28' E 014°57'0 0.0
2017-Sep-20 21:35N 38°28' E 014°57'0 0.0
2017-Sep-20 21:26N 38°28' E 014°57'0 0.0
2017-Sep-20 20:50N 38°28' E 014°57'0 0.0
2017-Sep-20 20:29N 38°28' E 014°57'0 0.0
2017-Sep-20 20:01N 38°28' E 014°57'0 0.0
2017-Sep-20 19:30N 38°28' E 014°57'0 0.0
2017-Sep-20 19:01N 38°28' E 014°57'3 6.4
2017-Sep-20 18:29N 38°25' E 014°58'3 5.3
2017-Sep-20 17:59N 38°24' E 015°01'613.2
2017-Sep-20 17:30N 38°21' E 015°08'612.7
2017-Sep-20 17:00N 38°17' E 015°15'4 8.4
2017-Sep-20 16:30N 38°13' E 015°15'0 0.0
2017-Sep-20 16:00N 38°13' E 015°15'0 0.0
2017-Sep-20 15:30N 38°13' E 015°15'0 0.0
2017-Sep-20 15:00N 38°13' E 015°15'0 0.0
2017-Sep-20 14:00N 38°13' E 015°15'0 0.0
2017-Sep-20 13:30N 38°13' E 015°15'0 0.0
2017-Sep-20 13:00N 38°13' E 015°15'0 0.0
2017-Sep-20 12:30N 38°13' E 015°15'0 0.0
2017-Sep-20 12:00N 38°13' E 015°15'0 0.0
2017-Sep-20 11:30N 38°13' E 015°15'0 0.0
2017-Sep-20 11:00N 38°13' E 015°15'0 0.0
2017-Sep-20 10:30N 38°13' E 015°15'0 0.0
2017-Sep-20 10:00N 38°13' E 015°15'0 0.0
2017-Sep-20 09:30N 38°13' E 015°15'0 0.0
2017-Sep-20 09:00N 38°13' E 015°15'0 0.0
2017-Sep-20 08:30N 38°13' E 015°15'0 0.0
2017-Sep-20 08:00N 38°13' E 015°15'0 0.0
2017-Sep-20 07:30N 38°13' E 015°15'0 0.0
2017-Sep-20 07:00N 38°13' E 015°15'1 2.8
2017-Sep-20 06:31N 38°13' E 015°16'612.2
2017-Sep-20 06:00N 38°18' E 015°11'713.9
2017-Sep-20 05:30N 38°22' E 015°03'5 9.0
2017-Sep-20 04:54N 38°25' E 014°58'3 0.5
2017-Sep-19 22:56N 38°28' E 014°57'0 0.0
2017-Sep-19 22:25N 38°28' E 014°57'0 0.0
2017-Sep-19 21:49N 38°28' E 014°57'0 0.0
2017-Sep-19 21:13N 38°28' E 014°57'0 0.0
2017-Sep-19 20:43N 38°28' E 014°57'0 0.0
2017-Sep-19 20:25N 38°28' E 014°57'0 0.0
2017-Sep-19 19:49N 38°28' E 014°57'0 0.0
2017-Sep-19 19:08N 38°28' E 014°57'0 0.0
2017-Sep-19 19:00N 38°28' E 014°57'2 3.3
2017-Sep-19 18:29N 38°27' E 014°58'2 3.6
2017-Sep-19 18:00N 38°25' E 014°59'714.3
2017-Sep-19 17:30N 38°21' E 015°07'714.6
2017-Sep-19 17:00N 38°17' E 015°14'4 8.8
2017-Sep-19 16:30N 38°13' E 015°15'0 0.0
2017-Sep-19 16:00N 38°13' E 015°15'0 0.0
2017-Sep-19 15:30N 38°13' E 015°15'0 0.0
2017-Sep-19 15:00N 38°13' E 015°15'0 0.0
2017-Sep-19 14:30N 38°13' E 015°15'0 0.0
2017-Sep-19 14:00N 38°13' E 015°15'0 0.0
2017-Sep-19 13:30N 38°13' E 015°15'0 0.0
2017-Sep-19 13:00N 38°13' E 015°15'0 0.0
2017-Sep-19 12:30N 38°13' E 015°15'0 0.0
2017-Sep-19 12:00N 38°13' E 015°15'0 0.0
2017-Sep-19 11:30N 38°13' E 015°15'0 0.0
2017-Sep-19 11:00N 38°13' E 015°15'0 0.0
2017-Sep-19 10:30N 38°13' E 015°15'0 0.0
2017-Sep-19 10:00N 38°13' E 015°15'0 0.0
2017-Sep-19 09:30N 38°13' E 015°15'0 0.0
2017-Sep-19 09:00N 38°13' E 015°15'0 0.0
2017-Sep-19 08:30N 38°13' E 015°15'0 0.0
2017-Sep-19 08:00N 38°13' E 015°15'0 0.4
2017-Sep-19 07:30N 38°13' E 015°15'0 0.0
2017-Sep-19 07:00N 38°13' E 015°15'1 2.5
2017-Sep-19 06:30N 38°14' E 015°16'612.7
2017-Sep-19 06:00N 38°19' E 015°12'714.9
2017-Sep-19 05:30N 38°23' E 015°04'5 7.8
2017-Sep-19 04:52N 38°25' E 014°58'3 5.2
2017-Sep-19 04:14N 38°28' E 014°57'0 0.1
2017-Sep-19 03:50N 38°28' E 014°57'0 0.0
2017-Sep-19 03:14N 38°28' E 014°57'0 0.0
2017-Sep-18 19:41N 38°28' E 014°57'0 0.0
2017-Sep-18 19:25N 38°28' E 014°57'0 0.0
2017-Sep-18 19:00N 38°28' E 014°57'0 0.8
2017-Sep-18 18:29N 38°28' E 014°58'3 6.1
2017-Sep-18 18:00N 38°25' E 014°58'714.6
2017-Sep-18 17:30N 38°21' E 015°06'815.2
2017-Sep-18 17:00N 38°18' E 015°14'5 0.6
2017-Sep-18 08:58N 38°13' E 015°15'0 0.0
2017-Sep-18 08:28N 38°13' E 015°15'0 0.0
2017-Sep-18 07:58N 38°13' E 015°15'0 0.4
2017-Sep-18 07:28N 38°13' E 015°15'0 0.0
2017-Sep-18 06:46N 38°13' E 015°15'2 6.6
2017-Sep-18 06:30N 38°14' E 015°16'613.2
2017-Sep-18 06:00N 38°19' E 015°11'714.2
2017-Sep-18 05:30N 38°23' E 015°03'5 7.2
2017-Sep-18 04:51N 38°25' E 014°58'3 8.3
2017-Sep-18 04:27N 38°28' E 014°57'0 0.0
2017-Sep-18 02:11N 38°28' E 014°57'0 0.0
2017-Sep-18 01:58N 38°28' E 014°57'0 0.0
2017-Sep-18 01:30N 38°28' E 014°57'0 0.0
2017-Sep-18 01:00N 38°28' E 014°57'0 0.0
2017-Sep-18 00:30N 38°28' E 014°57'0 0.0
2017-Sep-18 00:00N 38°28' E 014°57'0 0.0
2017-Sep-17 23:30N 38°28' E 014°57'0 0.0
2017-Sep-17 23:00N 38°28' E 014°57'0 0.0
2017-Sep-17 22:30N 38°28' E 014°57'0 0.0
2017-Sep-17 22:00N 38°28' E 014°57'0 0.0
2017-Sep-17 21:30N 38°28' E 014°57'0 0.0
2017-Sep-17 21:00N 38°28' E 014°57'0 0.0
2017-Sep-17 20:30N 38°28' E 014°57'0 0.0
2017-Sep-17 20:00N 38°28' E 014°57'0 0.0
2017-Sep-17 19:30N 38°28' E 014°57'0 0.0
2017-Sep-17 18:57N 38°28' E 014°57'1 1.8
2017-Sep-17 18:29N 38°28' E 014°58'3 5.2
2017-Sep-17 18:01N 38°25' E 014°58'814.9
2017-Sep-17 17:30N 38°21' E 015°06'815.3
2017-Sep-17 17:01N 38°17' E 015°15'4 8.5
2017-Sep-17 16:29N 38°13' E 015°15'0 0.0
2017-Sep-17 15:59N 38°13' E 015°15'0 0.0
2017-Sep-17 13:57N 38°13' E 015°15'0 0.0
2017-Sep-17 13:30N 38°13' E 015°15'0 0.0
2017-Sep-17 13:00N 38°13' E 015°15'0 0.0
2017-Sep-17 12:30N 38°13' E 015°15'0 0.0
2017-Sep-17 12:00N 38°13' E 015°15'0 0.0
2017-Sep-17 11:30N 38°13' E 015°15'0 0.0
2017-Sep-17 11:00N 38°13' E 015°15'0 0.0
2017-Sep-17 10:30N 38°13' E 015°15'0 0.0
2017-Sep-17 10:00N 38°13' E 015°15'0 0.0
2017-Sep-17 09:30N 38°13' E 015°15'0 0.0
2017-Sep-17 09:00N 38°13' E 015°15'0 0.0
2017-Sep-17 08:30N 38°13' E 015°15'0 0.0
2017-Sep-17 08:00N 38°13' E 015°15'0 0.0
2017-Sep-17 07:30N 38°13' E 015°15'0 0.0
2017-Sep-17 07:00N 38°13' E 015°15'2 3.3
2017-Sep-17 06:30N 38°14' E 015°16'612.9
2017-Sep-17 06:00N 38°19' E 015°12'714.5
2017-Sep-17 05:30N 38°23' E 015°04'5 8.6
2017-Sep-17 04:56N 38°25' E 014°58'3 6.2
2017-Sep-17 04:23N 38°28' E 014°57'0 0.0
2017-Sep-17 04:00N 38°28' E 014°57'0 0.0
2017-Sep-17 03:30N 38°28' E 014°57'0 0.0
2017-Sep-17 03:00N 38°28' E 014°57'0 0.0
2017-Sep-17 02:30N 38°28' E 014°57'0 0.0
2017-Sep-17 01:58N 38°28' E 014°57'0 0.0
2017-Sep-17 01:29N 38°28' E 014°57'0 0.0
2017-Sep-17 01:00N 38°28' E 014°57'0 0.0
2017-Sep-17 00:30N 38°28' E 014°57'0 0.0
2017-Sep-17 00:00N 38°28' E 014°57'0 0.0
2017-Sep-16 23:29N 38°28' E 014°57'0 0.0
2017-Sep-16 23:00N 38°28' E 014°57'0 0.0
2017-Sep-16 22:30N 38°28' E 014°57'0 0.0
2017-Sep-16 21:59N 38°28' E 014°57'0 0.0
2017-Sep-16 21:30N 38°28' E 014°57'0 0.0
2017-Sep-16 21:00N 38°28' E 014°57'0 0.0
2017-Sep-16 20:30N 38°28' E 014°57'0 0.0
2017-Sep-16 20:00N 38°28' E 014°57'0 0.0
2017-Sep-16 19:30N 38°28' E 014°57'0 0.0
2017-Sep-16 19:00N 38°28' E 014°57'0 0.1
2017-Sep-16 18:31N 38°28' E 014°57'3 6.0
2017-Sep-16 17:58N 38°25' E 014°58'714.7
2017-Sep-16 17:30N 38°22' E 015°05'815.5
2017-Sep-16 17:00N 38°18' E 015°14'5 7.6
2017-Sep-16 16:22N 38°13' E 015°15'0 0.0
2017-Sep-16 15:57N 38°13' E 015°15'0 0.0
2017-Sep-16 15:28N 38°13' E 015°15'0 0.0
2017-Sep-16 14:58N 38°13' E 015°15'0 0.0
2017-Sep-16 14:28N 38°13' E 015°15'0 0.0
2017-Sep-16 13:58N 38°13' E 015°15'0 0.0
2017-Sep-16 13:28N 38°13' E 015°15'0 0.0
2017-Sep-16 12:59N 38°13' E 015°15'0 0.0
2017-Sep-16 12:29N 38°13' E 015°15'0 0.0
2017-Sep-16 11:58N 38°13' E 015°15'0 0.0
2017-Sep-16 11:28N 38°13' E 015°15'0 0.0
2017-Sep-16 10:58N 38°13' E 015°15'0 0.0
2017-Sep-16 09:15N 38°13' E 015°15'0 0.0
2017-Sep-16 09:00N 38°13' E 015°15'0 0.0
2017-Sep-16 08:30N 38°13' E 015°15'0 0.0
2017-Sep-16 08:00N 38°13' E 015°15'0 0.4
2017-Sep-16 07:30N 38°13' E 015°15'0 0.0
2017-Sep-16 07:00N 38°13' E 015°15'1 2.4
2017-Sep-16 06:30N 38°13' E 015°16'612.8
2017-Sep-16 06:01N 38°19' E 015°12'714.5
2017-Sep-16 05:31N 38°23' E 015°04'5 8.1
2017-Sep-16 04:52N 38°25' E 014°58'3 7.9
2017-Sep-16 04:28N 38°28' E 014°57'0 0.0
2017-Sep-16 03:54N 38°28' E 014°57'0 0.0
2017-Sep-16 03:30N 38°28' E 014°57'0 0.0
2017-Sep-16 02:56N 38°28' E 014°57'0 0.0
2017-Sep-16 02:29N 38°28' E 014°57'0 0.0
2017-Sep-16 02:00N 38°28' E 014°57'0 0.0
2017-Sep-16 01:30N 38°28' E 014°57'0 0.0
2017-Sep-16 01:00N 38°28' E 014°57'0 0.0
2017-Sep-16 00:30N 38°28' E 014°57'0 0.0
2017-Sep-16 00:00N 38°28' E 014°57'0 0.0
2017-Sep-15 23:21N 38°28' E 014°57'0 0.0
2017-Sep-15 23:00N 38°28' E 014°57'0 0.0
2017-Sep-15 22:29N 38°28' E 014°57'0 0.0
2017-Sep-15 22:00N 38°28' E 014°57'0 0.0
2017-Sep-15 21:31N 38°28' E 014°57'0 0.0
2017-Sep-15 21:00N 38°28' E 014°57'0 0.0
2017-Sep-15 20:30N 38°28' E 014°57'0 0.0
2017-Sep-15 19:58N 38°28' E 014°57'0 0.0
2017-Sep-15 19:30N 38°28' E 014°57'0 0.0
2017-Sep-15 19:00N 38°28' E 014°57'0 0.2
2017-Sep-15 18:29N 38°28' E 014°58'3 6.4
2017-Sep-15 17:59N 38°25' E 014°58'714.5
2017-Sep-15 17:30N 38°22' E 015°06'815.3
2017-Sep-15 17:00N 38°18' E 015°14'5 8.9
2017-Sep-15 16:28N 38°13' E 015°15'0 0.0
2017-Sep-15 15:58N 38°13' E 015°15'0 0.4
2017-Sep-15 15:29N 38°13' E 015°15'0 0.0
2017-Sep-15 14:59N 38°13' E 015°15'0 0.0
2017-Sep-15 14:29N 38°13' E 015°15'0 0.0
2017-Sep-15 13:59N 38°13' E 015°15'0 0.0
2017-Sep-15 13:29N 38°13' E 015°15'0 0.0
2017-Sep-15 12:59N 38°13' E 015°15'0 0.0
2017-Sep-15 12:29N 38°13' E 015°15'0 0.0
2017-Sep-15 12:00N 38°13' E 015°15'0 0.0
2017-Sep-15 11:30N 38°13' E 015°15'0 0.0
2017-Sep-15 11:00N 38°13' E 015°15'0 0.0
2017-Sep-15 10:30N 38°13' E 015°15'0 0.0
2017-Sep-15 10:00N 38°13' E 015°15'0 0.0
2017-Sep-15 09:30N 38°13' E 015°15'0 0.0
2017-Sep-15 09:00N 38°13' E 015°15'0 0.0
2017-Sep-15 08:30N 38°13' E 015°15'0 0.0
2017-Sep-15 08:00N 38°13' E 015°15'0 0.0
2017-Sep-15 07:30N 38°13' E 015°15'0 0.1
2017-Sep-15 07:00N 38°13' E 015°15'2 3.4
2017-Sep-15 06:30N 38°14' E 015°16'612.7
2017-Sep-15 06:01N 38°19' E 015°11'714.7
2017-Sep-15 05:31N 38°23' E 015°03'5 7.3
2017-Sep-15 04:54N 38°25' E 014°58'3 0.5
2017-Sep-14 22:20N 38°28' E 014°57'0 0.0
2017-Sep-14 21:44N 38°28' E 014°57'0 0.0
2017-Sep-14 21:20N 38°28' E 014°57'0 0.0
2017-Sep-14 20:56N 38°28' E 014°57'0 0.0
2017-Sep-14 18:50N 38°28' E 014°57'0 0.2
2017-Sep-14 18:30N 38°28' E 014°57'3 6.5
2017-Sep-14 18:00N 38°25' E 014°58'714.2
2017-Sep-14 17:30N 38°21' E 015°06'714.8
2017-Sep-14 17:00N 38°18' E 015°14'5 8.5
2017-Sep-14 16:26N 38°13' E 015°15'0 0.0
2017-Sep-14 15:56N 38°13' E 015°15'0 0.1
2017-Sep-14 15:26N 38°13' E 015°15'0 0.0
2017-Sep-14 14:56N 38°13' E 015°15'0 0.0
2017-Sep-14 11:40N 38°13' E 015°15'0 0.0
2017-Sep-14 11:27N 38°13' E 015°15'0 0.0
2017-Sep-14 10:49N 38°13' E 015°15'0 0.0
2017-Sep-14 10:30N 38°13' E 015°15'0 0.0
2017-Sep-14 10:00N 38°13' E 015°15'0 0.0
2017-Sep-14 09:30N 38°13' E 015°15'0 0.0
2017-Sep-14 09:00N 38°13' E 015°15'0 0.0
2017-Sep-14 08:30N 38°13' E 015°15'0 0.0
2017-Sep-14 08:00N 38°13' E 015°15'0 0.0
2017-Sep-14 07:30N 38°13' E 015°15'0 0.0
2017-Sep-14 07:00N 38°13' E 015°15'2 3.9
2017-Sep-14 06:30N 38°14' E 015°16'714.1
2017-Sep-14 06:00N 38°20' E 015°11'714.6
2017-Sep-14 05:30N 38°23' E 015°03'4 6.0
2017-Sep-14 04:50N 38°25' E 014°58'3 0.3
2017-Sep-13 18:51N 38°28' E 014°57'3 4.4
2017-Sep-13 18:07N 38°25' E 014°58'214.0
2017-Sep-13 17:59N 38°24' E 015°00'714.6
2017-Sep-13 17:30N 38°21' E 015°08'714.4
2017-Sep-13 17:00N 38°17' E 015°16'4 0.6
2017-Sep-13 10:01N 38°13' E 015°15'0 0.0
2017-Sep-13 09:56N 38°13' E 015°15'0 0.0
2017-Sep-13 09:26N 38°13' E 015°15'0 0.0
2017-Sep-13 08:56N 38°13' E 015°15'0 0.0
2017-Sep-13 08:25N 38°13' E 015°15'0 0.0
2017-Sep-13 07:56N 38°13' E 015°15'0 0.0
2017-Sep-13 07:26N 38°13' E 015°15'0 0.1
2017-Sep-13 07:00N 38°13' E 015°15'2 3.9
2017-Sep-13 06:31N 38°14' E 015°16'713.5
2017-Sep-13 06:00N 38°20' E 015°11'814.9
2017-Sep-13 05:30N 38°23' E 015°02'4 6.2
2017-Sep-13 04:52N 38°26' E 014°58'3 3.4
2017-Sep-13 04:05N 38°28' E 014°57'0 0.1
2017-Sep-13 03:44N 38°28' E 014°57'0 0.0
2017-Sep-13 03:30N 38°28' E 014°57'3 0.3
2017-Sep-12 18:03N 38°25' E 014°58'214.3
2017-Sep-12 17:54N 38°24' E 015°01'614.2
2017-Sep-12 17:30N 38°21' E 015°07'713.8
2017-Sep-12 17:00N 38°17' E 015°14'4 7.9
2017-Sep-12 16:27N 38°13' E 015°15'0 0.0
2017-Sep-12 15:57N 38°13' E 015°15'0 0.0
2017-Sep-12 15:27N 38°13' E 015°15'0 0.1
2017-Sep-12 10:37N 38°13' E 015°15'  

Dump ship's entire track history